createdAt,value
2017-11-25T00:01:49.795Z,10.47
2017-11-25T00:04:17.758Z,12.33
2017-11-25T00:06:45.621Z,11.80
2017-11-25T00:09:13.492Z,18.87
2017-11-25T00:11:41.563Z,10.83
2017-11-25T00:14:09.508Z,13.93
2017-11-25T00:16:37.477Z,12.60
2017-11-25T00:19:05.546Z,13.20
2017-11-25T00:21:34.264Z,9.73
2017-11-25T00:24:02.072Z,7.97
2017-11-25T00:26:29.959Z,9.70
2017-11-25T00:28:57.954Z,7.87
2017-11-25T00:31:26.120Z,7.50
2017-11-25T00:33:54.177Z,10.73
2017-11-25T00:36:22.155Z,10.20
2017-11-25T00:38:50.219Z,12.10
2017-11-25T00:41:18.116Z,7.57
2017-11-25T00:43:45.972Z,10.60
2017-11-25T00:46:14.095Z,7.77
2017-11-25T00:48:42.099Z,6.40
2017-11-25T00:51:09.952Z,7.10
2017-11-25T00:53:37.826Z,6.63
2017-11-25T00:56:05.696Z,9.73
2017-11-25T00:58:33.683Z,9.90
2017-11-25T01:01:01.628Z,12.83
2017-11-25T01:03:29.578Z,20.50
2017-11-25T01:05:57.385Z,16.70
2017-11-25T01:08:25.250Z,17.03
2017-11-25T01:10:53.094Z,12.87
2017-11-25T01:13:20.988Z,15.93
2017-11-25T01:15:48.949Z,23.37
2017-11-25T01:18:17.115Z,15.80
2017-11-25T01:20:46.199Z,12.93
2017-11-25T01:23:15.008Z,18.80
2017-11-25T01:25:42.908Z,22.03
2017-11-25T01:28:11.766Z,17.83
2017-11-25T01:30:39.921Z,17.03
2017-11-25T01:33:07.782Z,15.20
2017-11-25T01:35:35.678Z,13.97
2017-11-25T01:38:03.720Z,12.47
2017-11-25T01:40:31.689Z,12.77
2017-11-25T01:43:00.288Z,11.03
2017-11-25T01:45:28.239Z,11.03
2017-11-25T01:47:56.210Z,10.00
2017-11-25T01:50:24.389Z,11.50
2017-11-25T01:52:52.560Z,12.73
2017-11-25T01:55:21.182Z,9.37
2017-11-25T01:57:49.930Z,17.13
2017-11-25T02:00:18.413Z,7.20
2017-11-25T02:02:46.199Z,7.70
2017-11-25T02:05:14.154Z,13.70
2017-11-25T02:07:42.139Z,11.57
2017-11-25T02:10:10.189Z,6.23
2017-11-25T02:12:38.152Z,10.00
2017-11-25T02:15:06.146Z,11.70
2017-11-25T02:17:34.029Z,7.77
2017-11-25T02:20:03.184Z,8.37
2017-11-25T02:22:31.008Z,24.33
2017-11-25T02:24:58.932Z,5.67
2017-11-25T02:27:27.006Z,22.97
2017-11-25T02:29:54.974Z,11.63
2017-11-25T02:32:23.049Z,11.63
2017-11-25T02:34:51.101Z,10.87
2017-11-25T02:37:19.273Z,8.90
2017-11-25T02:39:47.365Z,7.20
2017-11-25T02:42:15.624Z,8.13
2017-11-25T02:44:44.514Z,9.10
2017-11-25T02:47:12.591Z,6.20
2017-11-25T02:49:40.863Z,6.77
2017-11-25T02:52:08.741Z,9.53
2017-11-25T02:54:36.628Z,7.10
2017-11-25T02:57:05.378Z,5.13
2017-11-25T02:59:33.449Z,6.20
2017-11-25T03:02:01.305Z,5.33
2017-11-25T03:04:29.286Z,13.00
2017-11-25T03:06:57.431Z,9.37
2017-11-25T03:09:25.369Z,7.93
2017-11-25T03:11:54.319Z,4.30
2017-11-25T03:14:22.199Z,8.27
2017-11-25T03:16:50.151Z,7.67
2017-11-25T03:19:18.103Z,12.63
2017-11-25T03:21:45.871Z,4.80
2017-11-25T03:24:13.772Z,7.60
2017-11-25T03:26:41.641Z,11.13
2017-11-25T03:29:09.596Z,5.90
2017-11-25T03:31:37.477Z,5.13
2017-11-25T03:34:05.447Z,7.70
2017-11-25T03:36:33.595Z,8.37
2017-11-25T03:39:02.003Z,5.10
2017-11-25T03:41:30.041Z,7.97
2017-11-25T03:43:57.930Z,4.87
2017-11-25T03:46:25.895Z,11.10
2017-11-25T03:48:53.941Z,11.27
2017-11-25T03:51:21.820Z,7.67
2017-11-25T03:53:49.810Z,5.03
2017-11-25T03:56:17.751Z,5.70
2017-11-25T03:58:46.034Z,10.93
2017-11-25T04:01:14.003Z,12.50
2017-11-25T04:03:41.969Z,7.60
2017-11-25T04:06:10.062Z,6.97
2017-11-25T04:08:38.045Z,4.27
2017-11-25T04:11:06.000Z,8.60
2017-11-25T04:13:33.857Z,5.80
2017-11-25T04:16:02.428Z,14.57
2017-11-25T04:18:30.490Z,7.83
2017-11-25T04:20:58.402Z,6.40
2017-11-25T04:23:27.133Z,5.97
2017-11-25T04:25:55.244Z,6.57
2017-11-25T04:28:23.213Z,10.57
2017-11-25T04:30:51.290Z,7.50
2017-11-25T04:33:19.134Z,8.67
2017-11-25T04:35:47.226Z,6.90
2017-11-25T04:38:15.050Z,6.23
2017-11-25T04:40:42.938Z,5.30
2017-11-25T04:43:11.749Z,8.50
2017-11-25T04:45:39.841Z,5.00
2017-11-25T04:48:08.381Z,7.40
2017-11-25T04:50:36.295Z,8.93
2017-11-25T04:53:05.052Z,8.07
2017-11-25T04:55:32.912Z,6.87
2017-11-25T04:58:00.865Z,8.10
2017-11-25T05:00:28.855Z,9.53
2017-11-25T05:02:56.855Z,5.83
2017-11-25T05:05:24.961Z,11.20
2017-11-25T05:07:53.058Z,7.53
2017-11-25T05:10:21.020Z,6.80
2017-11-25T05:12:48.962Z,4.70
2017-11-25T05:15:16.963Z,14.23
2017-11-25T05:17:44.930Z,11.63
2017-11-25T05:20:12.968Z,10.13
2017-11-25T05:22:40.966Z,7.83
2017-11-25T05:25:08.833Z,7.20
2017-11-25T05:27:36.794Z,8.50
2017-11-25T05:30:04.786Z,11.50
2017-11-25T05:32:32.547Z,15.90
2017-11-25T05:35:01.025Z,10.80
2017-11-25T05:37:28.821Z,10.43
2017-11-25T05:39:57.576Z,9.33
2017-11-25T05:42:25.965Z,10.90
2017-11-25T05:44:53.728Z,12.23
2017-11-25T05:47:21.587Z,12.50
2017-11-25T05:49:49.712Z,13.60
2017-11-25T05:52:17.612Z,6.90
2017-11-25T05:54:45.496Z,8.77
2017-11-25T05:57:13.573Z,19.63
2017-11-25T05:59:41.540Z,8.87
2017-11-25T06:02:09.490Z,10.80
2017-11-25T06:04:37.455Z,12.93
2017-11-25T06:07:05.426Z,14.60
2017-11-25T06:09:33.416Z,16.13
2017-11-25T06:12:01.466Z,14.00
2017-11-25T06:14:29.354Z,14.20
2017-11-25T06:16:57.423Z,14.33
2017-11-25T06:19:26.094Z,10.93
2017-11-25T06:21:54.190Z,12.50
2017-11-25T06:24:22.112Z,8.47
2017-11-25T06:26:50.201Z,9.13
2017-11-25T06:29:18.193Z,10.50
2017-11-25T06:31:46.152Z,13.43
2017-11-25T06:34:14.107Z,8.80
2017-11-25T06:36:42.103Z,12.30
2017-11-25T06:39:10.048Z,12.77
2017-11-25T06:41:38.009Z,12.73
2017-11-25T06:44:05.999Z,10.90
2017-11-25T06:46:33.846Z,11.97
2017-11-25T06:49:01.680Z,13.73
2017-11-25T06:51:29.560Z,21.40
2017-11-25T06:53:57.553Z,19.03
2017-11-25T06:56:25.741Z,18.03
2017-11-25T06:58:54.272Z,25.03
2017-11-25T07:01:22.174Z,32.83
2017-11-25T07:03:50.141Z,40.20
2017-11-25T07:06:18.416Z,35.40
2017-11-25T07:08:46.208Z,22.33
2017-11-25T07:11:14.164Z,18.63
2017-11-25T07:13:42.021Z,31.20
2017-11-25T07:16:09.901Z,23.47
2017-11-25T07:18:37.854Z,23.03
2017-11-25T07:21:05.723Z,22.00
2017-11-25T07:23:33.687Z,26.47
2017-11-25T07:26:01.658Z,24.40
2017-11-25T07:28:29.582Z,16.90
2017-11-25T07:30:58.623Z,17.60
2017-11-25T07:33:26.506Z,25.27
2017-11-25T07:35:54.469Z,21.10
2017-11-25T07:38:22.428Z,20.87
2017-11-25T07:40:51.398Z,19.57
2017-11-25T07:43:19.951Z,19.00
2017-11-25T07:45:48.559Z,23.83
2017-11-25T07:48:16.891Z,24.43
2017-11-25T07:50:45.683Z,23.73
2017-11-25T07:53:13.756Z,19.33
2017-11-25T07:55:41.788Z,21.00
2017-11-25T07:58:09.662Z,21.50
2017-11-25T08:00:38.144Z,22.57
2017-11-25T08:03:06.130Z,48.93
2017-11-25T08:05:34.715Z,30.03
2017-11-25T08:08:02.580Z,23.97
2017-11-25T08:10:30.374Z,23.50
2017-11-25T08:13:14.994Z,26.23
2017-11-25T08:15:43.169Z,26.40
2017-11-25T08:18:11.133Z,20.70
2017-11-25T08:20:39.346Z,24.30
2017-11-25T08:23:08.277Z,18.23
2017-11-25T08:25:36.369Z,18.57
2017-11-25T08:28:04.327Z,15.03
2017-11-25T08:30:32.509Z,21.43
2017-11-25T08:33:00.486Z,16.23
2017-11-25T08:35:28.437Z,15.37
2017-11-25T08:37:56.441Z,11.33
2017-11-25T08:40:25.044Z,5.87
2017-11-25T08:42:53.721Z,3.30
2017-11-25T08:45:23.070Z,2.20
2017-11-25T08:47:51.473Z,3.90
2017-11-25T08:50:20.070Z,5.20
2017-11-25T08:52:47.854Z,7.13
2017-11-25T08:55:17.048Z,3.13
2017-11-25T08:57:46.101Z,5.17
2017-11-25T09:00:14.519Z,1.60
2017-11-25T09:02:43.163Z,1.77
2017-11-25T09:05:11.158Z,3.50
2017-11-25T09:07:39.625Z,0.90
2017-11-25T09:10:07.618Z,0.67
2017-11-25T09:12:36.496Z,0.70
2017-11-25T09:15:04.368Z,0.80
2017-11-25T09:17:33.422Z,0.90
2017-11-25T09:20:01.427Z,0.90
2017-11-25T09:22:29.388Z,5.93
2017-11-25T09:24:57.338Z,1.30
2017-11-25T09:27:25.346Z,2.43
2017-11-25T09:29:54.204Z,1.73
2017-11-25T09:32:22.289Z,0.90
2017-11-25T09:34:50.336Z,4.83
2017-11-25T09:37:18.428Z,0.60
2017-11-25T09:39:46.787Z,0.70
2017-11-25T09:42:14.963Z,2.10
2017-11-25T09:44:42.913Z,1.17
2017-11-25T09:47:10.796Z,2.13
2017-11-25T09:49:39.229Z,7.03
2017-11-25T09:52:08.083Z,0.70
2017-11-25T09:54:35.936Z,1.30
2017-11-25T09:57:03.754Z,1.83
2017-11-25T09:59:32.331Z,0.93
2017-11-25T10:02:00.986Z,1.47
2017-11-25T10:04:28.735Z,2.50
2017-11-25T10:06:56.526Z,1.03
2017-11-25T10:09:24.390Z,1.10
2017-11-25T10:11:52.244Z,1.30
2017-11-25T10:14:20.293Z,2.53
2017-11-25T10:16:48.082Z,1.23
2017-11-25T10:19:15.829Z,1.90
2017-11-25T10:21:43.608Z,0.80
2017-11-25T10:24:11.370Z,2.50
2017-11-25T10:26:39.264Z,1.20
2017-11-25T10:29:07.921Z,1.97
2017-11-25T10:31:35.794Z,2.10
2017-11-25T10:34:03.648Z,0.80
2017-11-25T10:36:31.500Z,0.67
2017-11-25T10:38:59.415Z,1.53
2017-11-25T10:41:28.158Z,5.60
2017-11-25T10:43:56.068Z,0.93
2017-11-25T10:46:24.730Z,0.90
2017-11-25T10:48:52.575Z,2.50
2017-11-25T10:51:20.341Z,1.03
2017-11-25T10:53:49.122Z,0.77
2017-11-25T10:56:16.891Z,3.23
2017-11-25T10:58:44.639Z,2.40
2017-11-25T11:01:12.454Z,3.03
2017-11-25T11:03:41.186Z,1.90
2017-11-25T11:06:09.203Z,1.63
2017-11-25T11:08:37.082Z,2.70
2017-11-25T11:11:05.754Z,2.33
2017-11-25T11:13:33.743Z,0.70
2017-11-25T11:16:02.616Z,0.50
2017-11-25T11:18:30.556Z,3.50
2017-11-25T11:20:58.436Z,2.33
2017-11-25T11:23:26.227Z,0.70
2017-11-25T11:25:54.871Z,1.30
2017-11-25T11:28:23.045Z,0.70
2017-11-25T11:30:50.798Z,0.80
2017-11-25T11:33:18.590Z,4.00
2017-11-25T11:35:46.369Z,4.00
2017-11-25T11:38:14.223Z,5.77
2017-11-25T11:40:42.197Z,1.90
2017-11-25T11:43:10.041Z,1.43
2017-11-25T11:45:37.906Z,2.93
2017-11-25T11:48:05.686Z,0.83
2017-11-25T11:50:33.491Z,2.60
2017-11-25T11:53:03.179Z,0.70
2017-11-25T11:55:31.113Z,2.60
2017-11-25T11:57:58.897Z,0.90
2017-11-25T12:00:26.768Z,0.90
2017-11-25T12:02:54.597Z,2.60
2017-11-25T12:05:23.600Z,1.40
2017-11-25T12:07:51.486Z,1.70
2017-11-25T12:10:19.537Z,1.40
2017-11-25T12:12:47.420Z,1.50
2017-11-25T12:15:15.284Z,1.33
2017-11-25T12:17:43.053Z,2.17
2017-11-25T12:20:11.021Z,2.40
2017-11-25T12:22:39.176Z,1.60
2017-11-25T12:25:07.884Z,1.10
2017-11-25T12:27:35.938Z,1.40
2017-11-25T12:30:03.919Z,2.00
2017-11-25T12:32:31.800Z,1.10
2017-11-25T12:35:00.557Z,1.27
2017-11-25T12:37:28.528Z,1.07
2017-11-25T12:39:56.319Z,1.37
2017-11-25T12:42:24.177Z,2.00
2017-11-25T12:44:52.027Z,1.83
2017-11-25T12:47:19.854Z,2.40
2017-11-25T12:49:47.679Z,2.07
2017-11-25T12:52:15.627Z,2.00
2017-11-25T12:54:43.594Z,2.00
2017-11-25T12:57:11.483Z,1.17
2017-11-25T12:59:39.278Z,7.17
2017-11-25T13:02:07.936Z,8.47
2017-11-25T13:04:35.712Z,5.47
2017-11-25T13:07:04.371Z,4.03
2017-11-25T13:09:32.337Z,4.97
2017-11-25T13:12:00.205Z,3.20
2017-11-25T13:14:28.079Z,4.57
2017-11-25T13:16:55.941Z,3.20
2017-11-25T13:19:23.741Z,7.27
2017-11-25T13:21:52.394Z,4.63
2017-11-25T13:24:20.168Z,4.53
2017-11-25T13:26:48.045Z,33.87
2017-11-25T13:29:16.802Z,71.37
2017-11-25T13:31:44.573Z,49.87
2017-11-25T13:34:12.487Z,29.50
2017-11-25T13:36:40.329Z,15.13
2017-11-25T13:39:08.919Z,21.30
2017-11-25T13:41:37.540Z,34.70
2017-11-25T13:44:05.542Z,8.20
2017-11-25T13:46:33.429Z,5.20
2017-11-25T13:49:01.275Z,7.47
2017-11-25T13:51:29.234Z,11.20
2017-11-25T13:53:57.195Z,12.10
2017-11-25T13:56:25.097Z,13.03
2017-11-25T13:58:53.797Z,14.17
2017-11-25T14:01:21.818Z,12.60
2017-11-25T14:03:49.812Z,10.67
2017-11-25T14:06:17.659Z,11.93
2017-11-25T14:08:45.567Z,11.73
2017-11-25T14:11:14.249Z,21.43
2017-11-25T14:13:42.920Z,20.07
2017-11-25T14:16:11.507Z,23.00
2017-11-25T14:18:40.078Z,25.90
2017-11-25T14:21:07.897Z,17.87
2017-11-25T14:23:35.789Z,16.23
2017-11-25T14:26:03.571Z,14.03
2017-11-25T14:28:31.543Z,12.97
2017-11-25T14:30:59.405Z,9.43
2017-11-25T14:33:27.267Z,8.40
2017-11-25T14:35:55.248Z,12.00
2017-11-25T14:38:23.191Z,15.23
2017-11-25T14:40:51.201Z,14.63
2017-11-25T14:43:19.765Z,9.70
2017-11-25T14:45:47.838Z,12.40
2017-11-25T14:48:15.817Z,9.57
2017-11-25T14:50:45.193Z,9.20
2017-11-25T14:53:13.381Z,7.60
2017-11-25T14:55:41.211Z,7.13
2017-11-25T14:58:08.979Z,3.00
2017-11-25T15:00:37.075Z,4.47
2017-11-25T15:03:05.139Z,6.03
2017-11-25T15:05:33.107Z,4.40
2017-11-25T15:08:00.981Z,4.30
2017-11-25T15:10:28.868Z,4.80
2017-11-25T15:12:56.840Z,3.80
2017-11-25T15:15:24.705Z,4.93
2017-11-25T15:17:53.390Z,20.83
2017-11-25T15:20:22.249Z,11.90
2017-11-25T15:22:50.217Z,8.30
2017-11-25T15:25:18.105Z,10.57
2017-11-25T15:27:46.075Z,6.60
2017-11-25T15:30:14.122Z,11.23
2017-11-25T15:32:42.300Z,4.57
2017-11-25T15:35:10.077Z,4.13
2017-11-25T15:37:38.030Z,4.87
2017-11-25T15:40:05.871Z,5.00
2017-11-25T15:42:33.868Z,12.23
2017-11-25T15:45:01.888Z,135.97
2017-11-25T15:47:30.573Z,17.67
2017-11-25T15:49:59.408Z,10.83
2017-11-25T15:52:27.303Z,16.23
2017-11-25T15:54:55.171Z,48.33
2017-11-25T15:57:23.134Z,19.17
2017-11-25T15:59:50.918Z,11.13
2017-11-25T16:02:19.576Z,50.27
2017-11-25T16:04:47.459Z,64.70
2017-11-25T16:07:16.113Z,22.37
2017-11-25T16:09:45.004Z,41.40
2017-11-25T16:12:12.797Z,17.97
2017-11-25T16:14:40.659Z,14.63
2017-11-25T16:17:08.517Z,126.00
2017-11-25T16:19:36.499Z,77.17
2017-11-25T16:22:04.378Z,18.63
2017-11-25T16:24:32.954Z,23.13
2017-11-25T16:27:01.614Z,28.43
2017-11-25T16:29:29.497Z,100.30
2017-11-25T16:31:57.395Z,110.17
2017-11-25T16:34:25.230Z,26.20
2017-11-25T16:36:53.292Z,26.30
2017-11-25T16:39:21.270Z,26.73
2017-11-25T16:41:49.128Z,29.60
2017-11-25T16:44:17.705Z,9.30
2017-11-25T16:46:45.680Z,15.93
2017-11-25T16:49:13.494Z,26.60
2017-11-25T16:51:41.483Z,25.80
2017-11-25T16:54:09.239Z,19.80
2017-11-25T16:56:37.231Z,16.30
2017-11-25T16:59:05.045Z,27.37
2017-11-25T17:01:33.607Z,15.80
2017-11-25T17:04:01.546Z,15.23
2017-11-25T17:06:29.630Z,8.53
2017-11-25T17:08:57.385Z,9.13
2017-11-25T17:11:25.346Z,11.97
2017-11-25T17:13:53.317Z,5.63
2017-11-25T17:16:21.088Z,6.27
2017-11-25T17:18:48.947Z,2.07
2017-11-25T17:21:16.814Z,3.17
2017-11-25T17:23:44.745Z,4.73
2017-11-25T17:26:12.699Z,2.60
2017-11-25T17:28:41.372Z,8.53
2017-11-25T17:31:09.329Z,3.20
2017-11-25T17:33:37.106Z,3.30
2017-11-25T17:36:05.771Z,3.47
2017-11-25T17:38:33.588Z,3.20
2017-11-25T17:41:01.501Z,7.20
2017-11-25T17:43:29.383Z,2.10
2017-11-25T17:45:57.276Z,4.33
2017-11-25T17:48:26.026Z,3.13
2017-11-25T17:50:53.895Z,2.10
2017-11-25T17:53:22.434Z,3.83
2017-11-25T17:55:50.358Z,4.60
2017-11-25T17:58:18.291Z,3.20
2017-11-25T18:00:46.059Z,6.87
2017-11-25T18:03:13.939Z,3.70
2017-11-25T18:05:41.882Z,1.87
2017-11-25T18:08:09.782Z,1.63
2017-11-25T18:10:37.548Z,1.57
2017-11-25T18:13:05.514Z,1.30
2017-11-25T18:15:33.377Z,1.53
2017-11-25T18:18:01.344Z,8.13
2017-11-25T18:20:29.300Z,3.37
2017-11-25T18:22:57.257Z,3.07
2017-11-25T18:25:25.228Z,2.40
2017-11-25T18:27:53.207Z,5.23
2017-11-25T18:30:21.082Z,3.03
2017-11-25T18:32:50.404Z,1.90
2017-11-25T18:35:18.478Z,1.90
2017-11-25T18:37:47.333Z,1.47
2017-11-25T18:40:15.318Z,2.60
2017-11-25T18:42:43.288Z,2.73
2017-11-25T18:45:11.228Z,2.00
2017-11-25T18:47:39.126Z,5.87
2017-11-25T18:50:08.517Z,1.97
2017-11-25T18:52:36.391Z,2.10
2017-11-25T18:55:04.253Z,1.67
2017-11-25T18:57:32.406Z,1.70
2017-11-25T19:00:00.301Z,3.37
2017-11-25T19:02:29.165Z,2.03
2017-11-25T19:04:57.067Z,2.87
2017-11-25T19:07:24.996Z,6.10
2017-11-25T19:09:52.806Z,2.37
2017-11-25T19:12:21.549Z,2.27
2017-11-25T19:14:49.553Z,8.33
2017-11-25T19:17:17.591Z,1.67
2017-11-25T19:19:45.445Z,1.17
2017-11-25T19:22:13.358Z,2.10
2017-11-25T19:24:41.191Z,10.97
2017-11-25T19:27:09.167Z,8.30
2017-11-25T19:29:37.032Z,3.60
2017-11-25T19:32:05.103Z,2.73
2017-11-25T19:34:33.166Z,1.40
2017-11-25T19:37:00.973Z,1.40
2017-11-25T19:39:29.845Z,1.50
2017-11-25T19:41:58.884Z,1.53
2017-11-25T19:44:27.114Z,1.83
2017-11-25T19:46:56.148Z,1.80
2017-11-25T19:49:25.570Z,1.90
2017-11-25T19:51:53.953Z,1.13
2017-11-25T19:54:21.951Z,1.60
2017-11-25T19:56:49.832Z,1.80
2017-11-25T19:59:19.309Z,1.43
2017-11-25T20:01:47.305Z,1.93
2017-11-25T20:04:15.230Z,1.03
2017-11-25T20:06:43.358Z,1.13
2017-11-25T20:09:11.988Z,1.53
2017-11-25T20:11:40.199Z,1.27
2017-11-25T20:14:08.477Z,0.90
2017-11-25T20:16:36.491Z,4.10
2017-11-25T20:19:04.507Z,1.07
2017-11-25T20:21:33.944Z,1.17
2017-11-25T20:24:02.081Z,1.60
2017-11-25T20:26:30.345Z,1.13
2017-11-25T20:28:58.555Z,1.43
2017-11-25T20:31:27.773Z,1.83
2017-11-25T20:33:55.991Z,1.17
2017-11-25T20:36:24.423Z,1.50
2017-11-25T20:38:52.689Z,1.63
2017-11-25T20:41:21.820Z,1.77
2017-11-25T20:43:49.919Z,1.07
2017-11-25T20:46:17.893Z,1.37
2017-11-25T20:48:45.936Z,1.50
2017-11-25T20:51:13.929Z,6.40
2017-11-25T20:53:42.195Z,7.00
2017-11-25T20:56:10.408Z,1.90
2017-11-25T20:58:39.200Z,1.60
2017-11-25T21:01:07.228Z,1.90
2017-11-25T21:03:35.608Z,1.37
2017-11-25T21:06:04.517Z,3.70
2017-11-25T21:08:33.429Z,1.43
2017-11-25T21:11:02.118Z,1.30
2017-11-25T21:13:31.071Z,1.83
2017-11-25T21:15:59.350Z,1.60
2017-11-25T21:18:27.833Z,1.47
2017-11-25T21:20:55.893Z,2.00
2017-11-25T21:23:23.889Z,1.87
2017-11-25T21:25:51.853Z,1.27
2017-11-25T21:28:19.713Z,2.10
2017-11-25T21:30:47.599Z,1.97
2017-11-25T21:33:15.440Z,1.40
2017-11-25T21:35:43.439Z,2.80
2017-11-25T21:38:12.185Z,2.20
2017-11-25T21:40:40.361Z,1.83
2017-11-25T21:43:08.472Z,6.23
2017-11-25T21:45:37.349Z,1.20
2017-11-25T21:48:05.160Z,1.30
2017-11-25T21:50:33.097Z,1.53
2017-11-25T21:53:01.950Z,1.20
2017-11-25T21:55:29.831Z,1.70
2017-11-25T21:57:57.799Z,1.73
2017-11-25T22:00:25.678Z,1.70
2017-11-25T22:02:53.556Z,1.50
2017-11-25T22:05:22.224Z,1.60
2017-11-25T22:07:50.269Z,2.37
2017-11-25T22:10:18.269Z,1.40
2017-11-25T22:12:46.934Z,2.20
2017-11-25T22:15:15.086Z,1.23
2017-11-25T22:17:43.176Z,1.00
2017-11-25T22:20:11.239Z,1.27
2017-11-25T22:22:39.320Z,1.30
2017-11-25T22:25:07.321Z,1.10
2017-11-25T22:27:36.011Z,1.37
2017-11-25T22:30:05.173Z,1.43
2017-11-25T22:32:33.391Z,6.67
2017-11-25T22:35:02.338Z,5.30
2017-11-25T22:37:30.450Z,2.03
2017-11-25T22:39:59.196Z,1.97
2017-11-25T22:42:27.164Z,1.43
2017-11-25T22:44:55.229Z,1.80
2017-11-25T22:47:23.326Z,2.00
2017-11-25T22:49:51.088Z,1.43
2017-11-25T22:52:19.242Z,1.53
2017-11-25T22:54:47.126Z,1.80
2017-11-25T22:57:15.181Z,1.40
2017-11-25T22:59:43.048Z,2.07
2017-11-25T23:02:10.908Z,1.93
2017-11-25T23:04:38.688Z,2.50
2017-11-25T23:07:07.302Z,4.10
2017-11-25T23:09:36.042Z,3.20
2017-11-25T23:12:03.927Z,3.10
2017-11-25T23:14:31.802Z,4.30
2017-11-25T23:16:59.678Z,1.97
2017-11-25T23:19:28.331Z,3.70
2017-11-25T23:21:56.216Z,5.90
2017-11-25T23:24:24.021Z,2.43
2017-11-25T23:26:51.931Z,3.60
2017-11-25T23:29:20.036Z,5.70
2017-11-25T23:31:48.920Z,2.60
2017-11-25T23:34:16.855Z,3.30
2017-11-25T23:36:45.013Z,2.47
2017-11-25T23:39:13.208Z,3.43
2017-11-25T23:41:41.078Z,4.40
2017-11-25T23:44:09.266Z,6.03
2017-11-25T23:46:37.143Z,10.90
2017-11-25T23:49:05.897Z,5.50
2017-11-25T23:51:33.793Z,8.37
2017-11-25T23:54:02.576Z,7.90
2017-11-25T23:56:30.455Z,7.87
2017-11-25T23:58:59.126Z,7.80
